Time;durP1;ratioP1;P1;durP2;ratioP2;P2;SDS_P1;SDS_P2;PMS_P1;PMS_P2;Temp;Humidity;BMP_temperature;BMP_pressure;BME280_temperature;BME280_humidity;BME280_pressure;Samples;Min_cycle;Max_cycle;Signal;HPM_P1;HPM_P2
2021/12/09 00:02:14;;;;;;;7.35;5.60;;;;;;;15.36;40.78;91676.19;4986676;28;20151;-84
2021/12/09 00:04:41;;;;;;;6.68;5.47;;;;;;;15.40;40.71;91673.13;4987685;28;20089;-84
2021/12/09 00:07:06;;;;;;;7.43;5.85;;;;;;;15.34;40.82;91640.59;4986761;28;20050;-85
2021/12/09 00:09:32;;;;;;;6.55;5.35;;;;;;;15.34;41.40;91653.47;4987864;28;20052;-86
2021/12/09 00:11:58;;;;;;;7.00;4.85;;;;;;;15.35;41.07;91669.28;4990002;28;20034;-85
2021/12/09 00:14:26;;;;;;;6.60;5.35;;;;;;;15.36;41.12;91667.28;4990000;28;20038;-93
2021/12/09 00:16:52;;;;;;;5.80;4.70;;;;;;;15.34;40.76;91665.09;5006864;28;20041;-84
2021/12/09 00:19:18;;;;;;;7.53;5.45;;;;;;;15.37;40.94;91679.66;4990439;28;20038;-85
2021/12/09 00:21:43;;;;;;;7.55;5.40;;;;;;;15.40;40.93;91676.56;4986487;28;20030;-84
2021/12/09 00:24:09;;;;;;;7.47;5.32;;;;;;;15.41;40.71;91672.56;4986707;28;20069;-85
2021/12/09 00:26:34;;;;;;;7.10;5.00;;;;;;;15.38;40.92;91692.69;4955210;28;20402;-84
2021/12/09 00:29:00;;;;;;;7.75;5.43;;;;;;;15.36;40.84;91708.13;4971146;28;20389;-85
2021/12/09 00:31:25;;;;;;;7.18;4.97;;;;;;;15.37;40.71;91720.47;4985997;28;20042;-85
2021/12/09 00:33:51;;;;;;;7.22;4.90;;;;;;;15.36;40.51;91716.31;4988419;28;20041;-84
2021/12/09 00:36:26;;;;;;;6.63;5.22;;;;;;;15.37;40.83;91715.03;4990530;28;20046;-85
2021/12/09 00:38:54;;;;;;;8.15;5.57;;;;;;;15.35;41.29;91717.56;4992155;28;20041;-84
2021/12/09 00:41:19;;;;;;;5.72;5.13;;;;;;;15.36;40.64;91692.53;4973357;28;20068;-85
2021/12/09 00:43:45;;;;;;;7.10;5.40;;;;;;;15.40;40.85;91684.72;4989633;28;20496;-84
2021/12/09 00:46:10;;;;;;;7.05;5.10;;;;;;;15.36;40.95;91670.75;4989649;28;20045;-84
2021/12/09 00:48:36;;;;;;;7.63;5.63;;;;;;;15.38;40.97;91646.41;4969388;28;20564;-84
2021/12/09 00:51:02;;;;;;;7.95;5.63;;;;;;;15.33;41.24;91628.25;4986895;28;20610;-86
2021/12/09 00:53:27;;;;;;;6.25;5.07;;;;;;;15.33;41.04;91619.34;4988457;28;20039;-85
2021/12/09 00:55:53;;;;;;;8.13;4.80;;;;;;;15.36;41.09;91629.91;4989221;28;20035;-85
2021/12/09 00:58:18;;;;;;;7.40;5.38;;;;;;;15.38;41.14;91643.69;4972532;28;20042;-84
2021/12/09 01:00:44;;;;;;;7.05;5.47;;;;;;;15.38;40.76;91640.97;4972917;28;20543;-84
2021/12/09 01:03:09;;;;;;;5.75;4.85;;;;;;;15.41;40.94;91650.81;4987952;28;20050;-86
2021/12/09 01:05:35;;;;;;;7.10;4.85;;;;;;;15.37;41.15;91644.25;4957436;28;20053;-84
2021/12/09 01:08:00;;;;;;;6.43;4.60;;;;;;;15.33;41.13;91660.91;4972328;28;20512;-84
2021/12/09 01:10:25;;;;;;;7.25;5.35;;;;;;;15.37;41.15;91655.84;4972782;28;20038;-84
2021/12/09 01:12:51;;;;;;;5.88;4.85;;;;;;;15.33;41.19;91654.75;4972323;28;20516;-84
2021/12/09 01:15:16;;;;;;;7.03;4.70;;;;;;;15.33;40.84;91676.53;4988136;28;20142;-84
2021/12/09 01:17:42;;;;;;;8.98;5.90;;;;;;;15.35;41.16;91676.72;4956512;28;20038;-84
2021/12/09 01:20:08;;;;;;;8.07;4.90;;;;;;;15.32;41.23;91667.63;4957814;28;20034;-84
2021/12/09 01:22:39;;;;;;;7.40;5.32;;;;;;;15.34;40.93;91664.38;4977413;28;20030;-84
2021/12/09 01:25:05;;;;;;;7.75;5.60;;;;;;;15.35;40.84;91666.56;4993492;28;20060;-84
2021/12/09 01:27:34;;;;;;;7.13;5.07;;;;;;;15.33;41.17;91671.81;4977449;28;20057;-84
2021/12/09 01:30:06;;;;;;;8.05;5.63;;;;;;;15.35;40.48;91691.06;4994191;28;20452;-85
2021/12/09 01:32:32;;;;;;;6.22;5.05;;;;;;;15.36;41.00;91700.69;4977790;28;20401;-84
2021/12/09 01:34:57;;;;;;;6.82;5.00;;;;;;;15.31;41.20;91704.28;4993525;28;20080;-87
2021/12/09 01:37:23;;;;;;;6.32;4.85;;;;;;;15.36;41.18;91713.56;4975965;28;20042;-90
2021/12/09 01:39:48;;;;;;;6.10;4.63;;;;;;;15.40;40.86;91706.50;4993787;28;20045;-84
2021/12/09 01:42:13;;;;;;;5.75;4.57;;;;;;;15.37;40.86;91723.91;4992764;28;20104;-84
2021/12/09 01:44:39;;;;;;;7.28;5.03;;;;;;;15.30;41.33;91726.59;4992103;28;20061;-84
2021/12/09 01:47:04;;;;;;;5.90;4.72;;;;;;;15.36;41.13;91741.53;4989496;28;20057;-92
2021/12/09 01:49:30;;;;;;;7.80;5.00;;;;;;;15.39;40.79;91734.28;5006046;28;20489;-84
2021/12/09 01:51:55;;;;;;;6.18;4.55;;;;;;;15.40;40.88;91736.47;4973621;28;20038;-83
2021/12/09 01:54:24;;;;;;;8.25;5.70;;;;;;;15.33;41.05;91720.81;4972879;28;20042;-85
2021/12/09 01:56:49;;;;;;;6.70;4.85;;;;;;;15.31;41.06;91728.78;4961383;28;20030;-84
2021/12/09 01:59:14;;;;;;;6.28;4.95;;;;;;;15.35;40.83;91736.63;4976000;28;20034;-85
2021/12/09 02:01:40;;;;;;;6.50;5.13;;;;;;;15.34;40.91;91727.72;4988783;28;20034;-85
2021/12/09 02:04:07;;;;;;;6.15;4.40;;;;;;;15.36;40.95;91727.19;5005264;28;20545;-84
2021/12/09 02:06:33;;;;;;;6.65;4.72;;;;;;;15.33;40.99;91739.88;5005332;28;20137;-85
2021/12/09 02:08:58;;;;;;;6.60;4.57;;;;;;;15.35;40.98;91723.75;5006972;28;20157;-84
2021/12/09 02:11:24;;;;;;;5.20;4.22;;;;;;;15.38;40.93;91727.38;4991170;28;20353;-84
2021/12/09 02:13:54;;;;;;;6.53;5.13;;;;;;;15.38;40.95;91717.19;4989825;28;20142;-84
2021/12/09 02:16:21;;;;;;;7.53;4.93;;;;;;;15.34;41.18;91702.50;4988356;28;20035;-85
2021/12/09 02:18:47;;;;;;;7.85;5.28;;;;;;;15.33;41.04;91718.09;4977077;28;20068;-84
2021/12/09 02:21:21;;;;;;;7.47;4.63;;;;;;;15.36;41.01;91713.56;4974843;28;20132;-84
2021/12/09 02:23:48;;;;;;;5.47;4.70;;;;;;;15.35;40.50;91718.28;4993249;28;20030;-84
2021/12/09 02:26:14;;;;;;;7.18;4.78;;;;;;;15.30;41.21;91727.31;4992464;28;20188;-84
2021/12/09 02:28:40;;;;;;;5.75;4.40;;;;;;;15.30;41.01;91738.22;4992459;28;20588;-85
2021/12/09 02:31:06;;;;;;;7.32;5.35;;;;;;;15.34;41.01;91760.38;4991284;28;20045;-84
2021/12/09 02:33:31;;;;;;;6.35;4.78;;;;;;;15.33;40.71;91758.19;5024541;28;20116;-91
2021/12/09 02:35:57;;;;;;;6.65;4.97;;;;;;;15.34;40.98;91756.94;4992261;28;20069;-84
2021/12/09 02:38:22;;;;;;;6.18;4.53;;;;;;;15.33;40.92;91758.94;4992015;28;20137;-85
2021/12/09 02:40:49;;;;;;;7.13;4.60;;;;;;;15.32;40.90;91754.00;5008665;28;20033;-94
2021/12/09 02:43:14;;;;;;;5.68;4.40;;;;;;;15.32;40.93;91757.47;4990532;28;20038;-84
2021/12/09 02:45:42;;;;;;;6.75;4.60;;;;;;;15.31;41.24;91771.59;4988392;28;20122;-84
2021/12/09 02:48:07;;;;;;;6.80;4.90;;;;;;;15.34;40.79;91767.81;4991741;28;20378;-84
2021/12/09 02:50:32;;;;;;;6.72;4.55;;;;;;;15.35;40.97;91764.56;4992193;28;20033;-85
2021/12/09 02:52:58;;;;;;;6.85;4.65;;;;;;;15.35;40.69;91766.56;5007972;28;20515;-84
2021/12/09 02:55:23;;;;;;;7.30;5.60;;;;;;;15.32;40.93;91762.91;4991202;28;20053;-84
2021/12/09 02:57:52;;;;;;;6.38;4.63;;;;;;;15.31;41.06;91744.38;5007809;28;20030;-84
2021/12/09 03:00:20;;;;;;;6.60;4.97;;;;;;;15.29;41.21;91749.63;4990859;28;20096;-84
2021/12/09 03:02:45;;;;;;;8.18;4.90;;;;;;;15.29;40.97;91742.19;4989038;28;20061;-85
2021/12/09 03:05:11;;;;;;;7.15;4.85;;;;;;;15.37;41.04;91723.22;4988705;28;20077;-85
2021/12/09 03:07:38;;;;;;;6.30;4.63;;;;;;;15.34;40.95;91727.72;5004847;28;20034;-84
2021/12/09 03:10:10;;;;;;;6.43;4.57;;;;;;;15.34;41.05;91710.66;4990458;28;20116;-84
2021/12/09 03:12:39;;;;;;;7.07;4.93;;;;;;;15.31;41.16;91728.03;5007781;28;20050;-84
2021/12/09 03:15:05;;;;;;;5.80;4.82;;;;;;;15.33;40.84;91723.53;4986790;28;20034;-85
2021/12/09 03:17:30;;;;;;;6.10;4.78;;;;;;;15.29;41.22;91734.03;5004476;28;20030;-85
2021/12/09 03:19:56;;;;;;;6.35;4.43;;;;;;;15.32;41.04;91734.97;4988535;28;20038;-85
2021/12/09 03:22:21;;;;;;;5.93;4.60;;;;;;;15.36;40.98;91732.63;4999050;28;20520;-84
2021/12/09 03:24:47;;;;;;;5.55;4.68;;;;;;;15.36;40.96;91711.59;4991068;28;20042;-84
2021/12/09 03:27:13;;;;;;;6.35;4.43;;;;;;;15.30;41.07;91712.97;4974435;28;20038;-87
2021/12/09 03:29:39;;;;;;;7.05;4.97;;;;;;;15.31;40.71;91714.44;4975444;28;20044;-84
2021/12/09 03:32:10;;;;;;;6.45;4.70;;;;;;;15.29;41.13;91717.69;4990777;28;20073;-85
2021/12/09 03:34:36;;;;;;;6.40;4.40;;;;;;;15.27;41.14;91725.66;4991092;28;20400;-84
2021/12/09 03:37:04;;;;;;;7.38;5.28;;;;;;;15.28;41.15;91737.28;4990861;28;20049;-88
2021/12/09 03:39:31;;;;;;;5.57;4.60;;;;;;;15.32;40.94;91745.84;5007123;28;20038;-85
2021/12/09 03:41:57;;;;;;;6.38;4.70;;;;;;;15.36;40.97;91748.97;4991374;28;20371;-85
2021/12/09 03:44:22;;;;;;;7.68;4.95;;;;;;;15.40;40.53;91752.81;4990182;28;20034;-84
2021/12/09 03:46:49;;;;;;;5.28;4.40;;;;;;;15.35;41.14;91737.34;4970954;28;20030;-85
2021/12/09 03:49:15;;;;;;;6.28;5.00;;;;;;;15.32;41.10;91727.53;5003044;28;20030;-84
2021/12/09 03:51:40;;;;;;;5.90;4.32;;;;;;;15.31;41.32;91717.16;4955613;28;20042;-85
2021/12/09 03:54:06;;;;;;;5.72;4.70;;;;;;;15.32;41.27;91724.06;4970754;28;20057;-92
2021/12/09 03:56:32;;;;;;;6.25;4.72;;;;;;;15.34;40.87;91735.88;4955719;28;20128;-85
2021/12/09 03:58:57;;;;;;;5.70;4.20;;;;;;;15.40;40.86;91731.03;4985789;28;20197;-86
2021/12/09 04:01:23;;;;;;;5.07;4.10;;;;;;;15.35;41.03;91728.44;4990217;28;20053;-84
2021/12/09 04:03:48;;;;;;;5.50;4.15;;;;;;;15.31;41.20;91730.78;4990992;28;20036;-84
2021/12/09 04:06:14;;;;;;;6.80;4.40;;;;;;;15.26;41.06;91713.31;4973988;28;20040;-85
2021/12/09 04:08:39;;;;;;;5.50;4.32;;;;;;;15.29;41.20;91717.69;5006755;28;20430;-84
2021/12/09 04:11:05;;;;;;;6.00;4.40;;;;;;;15.26;41.01;91732.34;4989130;28;20037;-84
2021/12/09 04:13:32;;;;;;;6.55;4.63;;;;;;;15.36;41.28;91744.25;5007109;28;20034;-85
2021/12/09 04:15:58;;;;;;;5.20;3.78;;;;;;;15.32;41.07;91741.13;4987625;28;20097;-85
2021/12/09 04:18:24;;;;;;;7.85;4.43;;;;;;;15.37;40.79;91753.16;5003544;28;20149;-85
2021/12/09 04:20:49;;;;;;;6.63;4.55;;;;;;;15.34;40.93;91762.38;4987219;28;20072;-84
2021/12/09 04:23:14;;;;;;;5.28;3.90;;;;;;;15.35;40.88;91753.69;5005237;28;20053;-84
2021/12/09 04:25:40;;;;;;;8.02;4.90;;;;;;;15.33;41.05;91741.88;5006486;28;20049;-84
2021/12/09 04:28:05;;;;;;;6.15;4.75;;;;;;;15.34;41.13;91741.34;4974210;28;20037;-84
2021/12/09 04:30:32;;;;;;;5.88;4.80;;;;;;;15.30;41.02;91748.38;4990215;28;20046;-84
2021/12/09 04:32:57;;;;;;;6.00;4.85;;;;;;;15.32;41.08;91746.56;4990240;28;20058;-85
2021/12/09 04:35:23;;;;;;;7.50;5.18;;;;;;;15.33;40.83;91753.47;4985866;28;20504;-91
2021/12/09 04:37:51;;;;;;;7.28;5.40;;;;;;;15.33;40.75;91758.94;5004168;28;20124;-84
2021/12/09 04:40:16;;;;;;;6.28;4.57;;;;;;;15.32;41.30;91786.69;5002505;28;20073;-93
2021/12/09 04:42:42;;;;;;;6.78;4.40;;;;;;;15.33;41.02;91799.03;4986935;28;20030;-87
2021/12/09 04:45:08;;;;;;;6.57;4.95;;;;;;;15.31;41.39;91790.66;5005290;28;20485;-86
2021/12/09 04:47:33;;;;;;;6.25;4.55;;;;;;;15.37;40.75;91772.22;4987314;28;20026;-85
2021/12/09 04:49:59;;;;;;;5.90;3.95;;;;;;;15.35;40.91;91761.13;5003243;28;20298;-84
2021/12/09 04:52:24;;;;;;;5.97;4.13;;;;;;;15.30;40.50;91753.81;4953811;28;20486;-86
2021/12/09 04:54:50;;;;;;;5.53;4.00;;;;;;;15.33;41.09;91741.88;4970771;28;20528;-84
2021/12/09 04:57:15;;;;;;;6.85;4.55;;;;;;;15.35;40.89;91763.84;4954382;28;20030;-85
2021/12/09 04:59:41;;;;;;;7.43;4.72;;;;;;;15.32;41.08;91809.19;4986921;28;20045;-84
2021/12/09 05:02:15;;;;;;;5.60;4.05;;;;;;;15.28;41.03;91821.66;4970577;28;20039;-85
2021/12/09 05:04:41;;;;;;;5.78;4.30;;;;;;;15.28;41.06;91800.63;4986787;28;20034;-85
2021/12/09 05:07:06;;;;;;;6.18;4.60;;;;;;;15.30;41.19;91797.38;5002460;28;20038;-86
2021/12/09 05:09:37;;;;;;;6.18;3.88;;;;;;;15.29;41.17;91801.34;4987679;28;20042;-89
2021/12/09 05:12:05;;;;;;;4.90;4.13;;;;;;;15.26;41.23;91805.84;5005598;28;20026;-84
2021/12/09 05:14:30;;;;;;;6.20;4.32;;;;;;;15.28;41.23;91811.50;4973952;28;20038;-90
2021/12/09 05:16:56;;;;;;;5.68;4.25;;;;;;;15.27;41.03;91801.13;5006218;28;20026;-85
2021/12/09 05:19:21;;;;;;;6.15;4.05;;;;;;;15.27;41.10;91806.59;5005124;28;20042;-84
2021/12/09 05:21:47;;;;;;;7.57;4.97;;;;;;;15.27;41.34;91825.63;4974405;28;20041;-84
2021/12/09 05:24:14;;;;;;;6.55;4.60;;;;;;;15.28;41.45;91844.16;4989032;28;20031;-91
2021/12/09 05:26:48;;;;;;;8.73;4.80;;;;;;;15.33;40.92;91828.97;4990642;28;20034;-84
2021/12/09 05:29:14;;;;;;;5.60;3.95;;;;;;;15.33;41.18;91823.53;4975322;28;20073;-89
2021/12/09 05:34:25;;;;;;;6.35;4.55;;;;;;;15.43;40.88;91819.09;4994255;28;20042;-85
2021/12/09 05:36:50;;;;;;;8.07;5.35;;;;;;;15.47;40.77;91818.75;5007081;28;20037;-87
2021/12/09 05:39:16;;;;;;;7.70;5.70;;;;;;;15.55;41.44;91835.91;4994608;28;20499;-85
2021/12/09 05:41:42;;;;;;;10.95;7.93;;;;;;;15.60;41.33;91833.06;5011014;28;20125;-85
2021/12/09 05:44:08;;;;;;;15.52;10.88;;;;;;;15.63;41.37;91829.28;4990432;28;20054;-83
2021/12/09 05:46:35;;;;;;;38.78;26.67;;;;;;;15.62;40.35;91829.81;5011595;28;20523;-90
2021/12/09 05:49:02;;;;;;;47.58;14.60;;;;;;;15.53;40.74;91835.72;4979644;28;20563;-87
2021/12/09 05:51:28;;;;;;;11.32;8.40;;;;;;;15.54;40.61;91835.19;4982779;28;20102;-87
2021/12/09 05:53:55;;;;;;;23.98;12.90;;;;;;;15.60;40.77;91835.06;4996620;28;20080;-86
2021/12/09 05:56:21;;;;;;;31.33;13.15;;;;;;;15.53;40.81;91814.66;4977751;28;20099;-87
2021/12/09 05:58:46;;;;;;;35.53;17.25;;;;;;;15.44;40.82;91802.22;4992920;28;20092;-85
2021/12/09 06:01:12;;;;;;;57.20;29.73;;;;;;;15.50;40.90;91810.25;5009665;28;20075;-86
2021/12/09 06:03:38;;;;;;;53.30;24.92;;;;;;;15.51;41.06;91811.00;4992351;28;20038;-91
2021/12/09 06:06:04;;;;;;;66.97;27.40;;;;;;;15.54;40.51;91809.94;4976893;28;20034;-85
2021/12/09 06:08:29;;;;;;;68.30;28.05;;;;;;;15.54;40.70;91815.38;4970168;28;20041;-85
2021/12/09 06:10:55;;;;;;;78.90;33.53;;;;;;;15.50;40.69;91807.53;4993275;28;20045;-89
2021/12/09 06:13:22;;;;;;;81.97;36.33;;;;;;;15.51;40.90;91814.47;4974106;28;20054;-89
2021/12/09 06:15:49;;;;;;;93.57;41.05;;;;;;;15.49;40.91;91811.53;4973855;28;20045;-89
2021/12/09 06:18:14;;;;;;;84.45;39.13;;;;;;;15.56;40.58;91815.63;4977147;28;20041;-90
2021/12/09 06:20:39;;;;;;;106.47;45.65;;;;;;;15.48;39.64;91817.50;4991461;28;20053;-86
2021/12/09 06:23:05;;;;;;;127.85;56.30;;;;;;;15.47;40.14;91819.50;4981680;28;20026;-89
2021/12/09 06:25:31;;;;;;;98.70;46.72;;;;;;;15.53;39.98;91824.81;4976970;28;20041;-86
2021/12/09 06:27:57;;;;;;;111.70;50.08;;;;;;;15.50;40.70;91832.06;4987989;28;20125;-90
2021/12/09 06:30:23;;;;;;;111.43;53.25;;;;;;;15.53;40.44;91817.38;4972228;28;20118;-86
2021/12/09 06:32:48;;;;;;;89.13;41.75;;;;;;;15.38;36.33;91826.13;4988595;28;20045;-86
2021/12/09 06:35:14;;;;;;;94.43;39.05;;;;;;;15.29;34.97;91821.13;4977577;28;20034;-87
2021/12/09 06:37:43;;;;;;;89.05;34.90;;;;;;;15.16;33.17;91823.16;4976640;28;20401;-89
2021/12/09 06:40:09;;;;;;;84.18;34.53;;;;;;;15.02;32.65;91830.63;4978132;28;20037;-88
2021/12/09 06:42:35;;;;;;;178.80;55.10;;;;;;;15.05;32.25;91826.84;4976479;28;20041;-88
2021/12/09 06:45:01;;;;;;;139.75;50.50;;;;;;;15.04;32.25;91820.69;4992697;28;20310;-86
2021/12/09 06:47:26;;;;;;;119.72;42.85;;;;;;;15.07;31.96;91833.22;4995683;28;20029;-88
2021/12/09 06:49:52;;;;;;;99.18;42.50;;;;;;;15.00;32.06;91831.16;4991672;28;20057;-86
2021/12/09 06:52:18;;;;;;;118.20;49.72;;;;;;;15.04;32.52;91814.50;4993416;28;20646;-86
2021/12/09 06:54:44;;;;;;;149.10;60.30;;;;;;;15.07;32.79;91816.19;4978374;28;20034;-87
2021/12/09 06:57:09;;;;;;;172.35;66.72;;;;;;;15.15;33.02;91819.00;4976108;28;20040;-90
2021/12/09 06:59:44;;;;;;;206.50;76.40;;;;;;;15.27;34.82;91822.91;5010067;28;20034;-90
2021/12/09 07:02:09;;;;;;;218.32;92.65;;;;;;;15.25;36.04;91825.44;4982781;28;20030;-87
2021/12/09 07:04:35;;;;;;;189.68;78.93;;;;;;;15.23;36.39;91819.78;5006191;28;20045;-85
2021/12/09 07:07:00;;;;;;;193.27;82.30;;;;;;;15.26;36.38;91822.19;5007183;28;20050;-87
2021/12/09 07:09:28;;;;;;;235.75;98.30;;;;;;;15.41;37.29;91814.16;4991963;28;20042;-82
2021/12/09 07:11:55;;;;;;;393.88;272.10;;;;;;;15.61;36.70;91807.31;5007696;28;20030;-86
2021/12/09 07:14:20;;;;;;;603.00;451.00;;;;;;;15.67;36.19;91826.25;4990395;28;20082;-83
2021/12/09 07:16:46;;;;;;;238.70;117.03;;;;;;;15.70;36.46;91836.06;4992304;28;20491;-87
2021/12/09 07:19:12;;;;;;;245.98;117.18;;;;;;;15.68;36.22;91847.50;4972604;28;20592;-85
2021/12/09 07:21:38;;;;;;;212.82;105.68;;;;;;;15.64;36.05;91828.03;4990010;28;20092;-83
2021/12/09 07:24:03;;;;;;;250.55;118.65;;;;;;;15.53;36.25;91817.38;4971595;28;20034;-83
2021/12/09 07:26:30;;;;;;;286.85;128.50;;;;;;;15.54;36.44;91837.19;4991414;28;20064;-87
2021/12/09 07:28:56;;;;;;;235.13;113.20;;;;;;;15.49;36.13;91833.31;4974687;28;20168;-84
2021/12/09 07:31:23;;;;;;;218.45;106.38;;;;;;;15.51;36.18;91836.25;4995936;28;20038;-84
2021/12/09 07:33:52;;;;;;;218.48;106.93;;;;;;;15.51;36.51;91832.78;4977157;28;20081;-86
2021/12/09 07:36:17;;;;;;;250.30;115.50;;;;;;;15.46;36.80;91833.63;4974145;28;20136;-86
2021/12/09 07:38:45;;;;;;;234.30;107.35;;;;;;;15.41;36.90;91833.22;4990119;28;20049;-84
2021/12/09 07:41:12;;;;;;;205.52;100.57;;;;;;;15.38;36.80;91839.00;5006726;28;20081;-88
2021/12/09 07:43:37;;;;;;;216.07;107.22;;;;;;;15.42;36.81;91859.19;4973053;28;20030;-86
2021/12/09 07:46:03;;;;;;;202.90;98.97;;;;;;;15.50;36.86;91861.28;5005746;28;20141;-87
2021/12/09 07:48:29;;;;;;;228.32;108.95;;;;;;;15.47;37.00;91851.44;4993239;28;20456;-86
2021/12/09 07:50:55;;;;;;;190.40;97.93;;;;;;;15.51;36.60;91854.56;4993393;28;20030;-92
2021/12/09 07:53:22;;;;;;;220.95;101.00;;;;;;;15.47;37.15;91868.50;4973969;28;20062;-89
2021/12/09 07:55:48;;;;;;;245.77;116.57;;;;;;;15.48;36.96;91874.69;4961559;28;20402;-88
2021/12/09 07:58:15;;;;;;;199.73;95.25;;;;;;;15.52;36.94;91875.84;4973263;28;20038;-88
2021/12/09 08:00:40;;;;;;;196.70;96.30;;;;;;;15.48;36.88;91883.59;5008910;28;20038;-88
2021/12/09 08:03:06;;;;;;;214.00;103.40;;;;;;;15.63;36.51;91883.75;4990439;28;20064;-90
2021/12/09 08:05:33;;;;;;;241.15;110.07;;;;;;;15.52;36.25;91899.59;4975316;28;20441;-88
2021/12/09 08:07:59;;;;;;;316.10;111.90;;;;;;;15.52;36.31;91897.63;5009188;28;20069;-93
2021/12/09 08:10:24;;;;;;;309.05;116.05;;;;;;;15.52;36.52;91896.88;4974596;28;20153;-91
2021/12/09 08:12:50;;;;;;;238.02;108.53;;;;;;;15.52;36.65;91907.78;4986759;28;20038;-87
2021/12/09 08:15:17;;;;;;;270.25;105.13;;;;;;;15.48;35.47;91910.81;5005426;28;20065;-89
2021/12/09 08:20:14;;;;;;;234.13;101.90;;;;;;;15.44;35.66;91921.28;4987323;28;20492;-88
2021/12/09 08:22:42;;;;;;;254.90;102.47;;;;;;;15.48;35.79;91931.88;5006363;28;20057;-87
2021/12/09 08:25:08;;;;;;;245.50;99.85;;;;;;;15.43;36.03;91931.47;4988237;28;20042;-89
2021/12/09 08:27:36;;;;;;;231.55;100.03;;;;;;;15.40;36.18;91951.56;5009523;28;20038;-86
2021/12/09 08:30:05;;;;;;;266.88;117.43;;;;;;;15.41;36.72;91946.84;4993837;28;20074;-87
2021/12/09 08:32:31;;;;;;;233.82;108.07;;;;;;;15.47;36.83;91933.13;5005302;28;20038;-88
2021/12/09 08:34:56;;;;;;;217.85;96.38;;;;;;;15.47;36.79;91924.97;4972655;28;20107;-87
2021/12/09 08:37:22;;;;;;;229.98;102.88;;;;;;;15.48;36.79;91934.59;4976433;28;20124;-90
2021/12/09 08:39:47;;;;;;;224.38;113.65;;;;;;;15.49;36.68;91944.22;4977931;28;20038;-91
2021/12/09 08:42:16;;;;;;;256.15;117.13;;;;;;;15.49;36.75;91934.06;4986266;28;20038;-86
2021/12/09 08:44:42;;;;;;;231.13;105.72;;;;;;;15.47;37.08;91930.41;4989283;28;20039;-88
2021/12/09 08:47:08;;;;;;;235.95;106.07;;;;;;;15.50;36.87;91937.53;4991040;28;20110;-89
2021/12/09 08:49:33;;;;;;;229.05;112.93;;;;;;;15.53;37.02;91945.38;4989085;28;20031;-93
2021/12/09 08:51:59;;;;;;;225.48;100.45;;;;;;;15.51;36.52;91945.19;5007831;28;20508;-88
2021/12/09 08:54:24;;;;;;;210.70;98.10;;;;;;;15.46;36.25;91942.56;4986971;28;20030;-90
2021/12/09 08:56:51;;;;;;;222.15;104.35;;;;;;;15.46;36.76;91929.69;4991483;28;20030;-86
2021/12/09 08:59:17;;;;;;;236.02;99.15;;;;;;;15.51;36.64;91925.38;4990184;28;20520;-86
2021/12/09 09:01:43;;;;;;;211.13;97.55;;;;;;;15.52;36.60;91929.56;4976535;28;20452;-88
2021/12/09 09:04:08;;;;;;;216.27;99.28;;;;;;;15.52;36.69;91916.69;4991201;28;20042;-86
2021/12/09 09:06:34;;;;;;;215.45;95.28;;;;;;;15.50;36.65;91916.47;4991881;28;20038;-88
2021/12/09 09:09:00;;;;;;;152.23;65.35;;;;;;;15.44;35.01;91911.13;4991042;28;20591;-89
2021/12/09 09:11:26;;;;;;;410.30;287.60;;;;;;;15.39;35.82;91917.44;4989424;28;20039;-87
2021/12/09 09:13:51;;;;;;;134.93;68.60;;;;;;;15.44;35.13;91929.47;5008571;28;20073;-86
2021/12/09 09:16:27;;;;;;;316.70;93.60;;;;;;;15.43;35.70;91915.13;4988667;28;20042;-88
2021/12/09 09:18:57;;;;;;;186.23;76.88;;;;;;;15.40;36.52;91916.16;4961241;28;20042;-85
2021/12/09 09:21:23;;;;;;;202.20;87.63;;;;;;;15.42;37.58;91924.53;4981083;28;20054;-92
2021/12/09 09:23:48;;;;;;;181.05;82.68;;;;;;;15.46;37.50;91909.88;4984400;28;20041;-87
2021/12/09 09:26:14;;;;;;;168.70;79.50;;;;;;;15.46;37.99;91904.44;4982126;28;20489;-86
2021/12/09 09:28:41;;;;;;;197.93;89.00;;;;;;;15.43;38.00;91898.78;4979273;28;20390;-86
2021/12/09 09:31:08;;;;;;;169.05;80.57;;;;;;;15.44;38.35;91899.50;4962811;28;20065;-87
2021/12/09 09:33:34;;;;;;;222.27;97.63;;;;;;;15.43;38.39;91901.50;4975671;28;20053;-86
2021/12/09 09:36:00;;;;;;;239.73;93.30;;;;;;;15.48;38.83;91904.66;4978402;28;20050;-84
2021/12/09 09:38:26;;;;;;;198.05;93.07;;;;;;;15.45;38.53;91890.09;4975205;28;20034;-84
2021/12/09 09:40:59;;;;;;;181.05;76.28;;;;;;;15.46;37.99;91897.00;4993051;28;20048;-84
2021/12/09 09:46:12;;;;;;;199.00;89.00;;;;;;;15.48;39.04;91891.75;4986177;28;20098;-83
2021/12/09 09:48:37;;;;;;;107.45;52.97;;;;;;;15.41;36.22;91903.28;4969590;28;20118;-82
2021/12/09 09:51:03;;;;;;;124.35;58.85;;;;;;;15.37;36.74;91941.72;4975154;28;20027;-83
2021/12/09 09:53:29;;;;;;;133.30;63.70;;;;;;;15.44;37.36;91943.81;4960756;28;20035;-84
2021/12/09 09:55:54;;;;;;;128.43;63.63;;;;;;;15.44;37.40;91924.03;4964038;28;20683;-84
2021/12/09 09:58:20;;;;;;;154.45;69.53;;;;;;;15.39;37.82;91917.44;5030374;23;20050;-83
2021/12/09 10:00:45;;;;;;;139.45;64.13;;;;;;;15.40;38.74;91913.44;5051230;22;20038;-83
2021/12/09 10:03:17;;;;;;;161.18;73.72;;;;;;;15.46;38.78;91924.22;5001671;28;20038;-82
2021/12/09 10:05:45;;;;;;;154.80;72.05;;;;;;;15.51;39.13;91926.09;4990140;28;20117;-83
2021/12/09 10:08:19;;;;;;;166.30;76.85;;;;;;;15.47;39.21;91908.63;4977880;28;20034;-83
2021/12/09 10:10:46;;;;;;;173.20;79.55;;;;;;;15.48;39.38;91907.38;4991582;28;20034;-84
2021/12/09 10:13:13;;;;;;;189.43;76.82;;;;;;;15.55;38.76;91912.19;5000349;28;20489;-84
2021/12/09 10:15:48;;;;;;;176.32;80.30;;;;;;;15.56;39.04;91935.44;4998439;28;20181;-90
2021/12/09 10:18:42;;;;;;;178.75;79.45;;;;;;;15.53;39.06;91936.47;4989562;28;20043;-83
2021/12/09 10:21:08;;;;;;;160.10;72.05;;;;;;;15.60;39.18;91939.28;5021222;28;20037;-84
2021/12/09 10:23:36;;;;;;;133.10;68.82;;;;;;;15.52;39.48;91943.19;4980755;28;20042;-85
2021/12/09 10:26:25;;;;;;;156.50;76.50;;;;;;;15.51;39.59;91947.16;5002907;28;20042;-86
2021/12/09 10:29:03;;;;;;;153.80;70.22;;;;;;;15.56;39.52;91951.78;4993942;28;20038;-83
2021/12/09 10:31:34;;;;;;;138.90;71.43;;;;;;;15.64;39.45;91938.97;4992207;28;20046;-84
2021/12/09 10:36:52;;;;;;;164.55;78.20;;;;;;;15.62;39.32;91936.03;5011232;28;20045;-84
2021/12/09 10:39:21;;;;;;;158.27;73.35;;;;;;;15.60;39.30;91931.13;5002972;23;20047;-85
2021/12/09 10:41:46;;;;;;;155.73;75.57;;;;;;;15.59;39.47;91935.09;4984500;28;20660;-83
2021/12/09 10:44:12;;;;;;;185.85;87.15;;;;;;;15.60;39.56;91936.56;4971596;28;20067;-83
2021/12/09 10:46:56;;;;;;;211.02;101.13;;;;;;;15.66;39.38;91937.19;4963786;28;20049;-83
2021/12/09 10:49:23;;;;;;;238.48;107.13;;;;;;;15.64;39.38;91934.25;4957468;28;20637;-83
2021/12/09 10:51:57;;;;;;;218.27;102.05;;;;;;;15.60;39.64;91922.97;4933936;29;20039;-83
2021/12/09 10:54:35;;;;;;;259.98;118.88;;;;;;;15.63;39.62;91930.06;4941120;28;20055;-82
2021/12/09 10:57:27;;;;;;;341.33;124.28;;;;;;;15.71;39.43;91916.53;4949226;28;20071;-82
2021/12/09 10:59:52;;;;;;;282.70;123.00;;;;;;;15.79;39.23;91925.53;4937470;29;20040;-88
2021/12/09 11:02:18;;;;;;;262.92;119.18;;;;;;;15.88;41.00;91929.78;4980728;28;20041;-94
2021/12/09 11:05:00;;;;;;;261.35;122.00;;;;;;;15.82;39.51;91940.81;4991293;28;20034;-83
2021/12/09 11:07:30;;;;;;;238.90;114.15;;;;;;;15.94;40.65;91942.03;4954662;28;20039;-83
2021/12/09 11:10:17;;;;;;;243.77;110.72;;;;;;;16.01;40.60;91949.56;4965976;28;20422;-83
2021/12/09 11:12:55;;;;;;;251.20;110.70;;;;;;;16.09;39.76;91944.91;4983032;28;20715;-82
2021/12/09 11:15:21;;;;;;;229.20;99.45;;;;;;;16.18;39.35;91941.00;4966652;28;20039;-83
2021/12/09 11:17:50;;;;;;;220.60;103.78;;;;;;;16.15;39.89;91950.22;4953184;28;20032;-82
2021/12/09 11:20:41;;;;;;;230.38;99.05;;;;;;;16.10;39.55;91945.63;4956639;28;20030;-86
2021/12/09 11:23:26;;;;;;;196.15;94.95;;;;;;;16.09;39.70;91955.06;4947484;28;20038;-86
2021/12/09 11:25:54;;;;;;;188.68;93.22;;;;;;;16.10;39.22;91951.81;4982467;28;20110;-82
2021/12/09 11:28:22;;;;;;;179.27;89.88;;;;;;;16.12;39.43;91948.56;4934957;28;20512;-81
2021/12/09 11:31:16;;;;;;;176.95;89.63;;;;;;;16.06;39.27;91945.22;4935424;28;20058;-81